Terminal Aerodrome Forecast
Issued by NWS Cleveland, OH

Home | Current Version | Previous Version | Graphics & Text | Print | Product List | Glossary Off
Versions: 1 2 3 4 5 6 7 8 9 10 11 12 13 14 15 16 17 18 19 20 21

000
FTUS41 KCLE 251500 AAA
TAFERI
TAF AMD
KERI 251535Z 2516/2612 22015G25KT P6SM OVC035
     FM251800 23015G25KT P6SM OVC030
     FM252100 24012G20KT P6SM OVC035
     FM260300 25005KT P6SM OVC035=

USA.gov is the U.S. government's official web portal to all federal, state and local government web resources and services.